sensor_id;sensor_type;location;lat;lon;timestamp;pressure;altitude;pressure_sealevel;temperature;humidity
82474;BME280;72350;53.232;6.556;2023-09-19T00:00:44;100271.19;;;15.37;88.78
82474;BME280;72350;53.232;6.556;2023-09-19T00:03:15;100271.25;;;15.30;89.56
82474;BME280;72350;53.232;6.556;2023-09-19T00:05:44;100269.09;;;15.32;90.48
82474;BME280;72350;53.232;6.556;2023-09-19T00:08:13;100273.41;;;15.28;90.04
82474;BME280;72350;53.232;6.556;2023-09-19T00:10:41;100278.97;;;15.28;90.04
82474;BME280;72350;53.232;6.556;2023-09-19T00:13:09;100280.69;;;15.22;89.98
82474;BME280;72350;53.232;6.556;2023-09-19T00:15:43;100281.59;;;15.16;91.11
82474;BME280;72350;53.232;6.556;2023-09-19T00:18:17;100282.41;;;15.23;90.89
82474;BME280;72350;53.232;6.556;2023-09-19T00:20:47;100277.63;;;15.05;90.66
82474;BME280;72350;53.232;6.556;2023-09-19T00:23:17;100291.34;;;15.00;92.78
82474;BME280;72350;53.232;6.556;2023-09-19T00:25:46;100290.31;;;14.95;92.60
82474;BME280;72350;53.232;6.556;2023-09-19T00:28:14;100289.41;;;15.01;91.90
82474;BME280;72350;53.232;6.556;2023-09-19T00:30:44;100300.56;;;14.94;90.60
82474;BME280;72350;53.232;6.556;2023-09-19T00:33:12;100300.31;;;14.96;90.54
82474;BME280;72350;53.232;6.556;2023-09-19T00:35:48;100304.94;;;15.02;90.16
82474;BME280;72350;53.232;6.556;2023-09-19T00:38:16;100302.19;;;15.02;89.91
82474;BME280;72350;53.232;6.556;2023-09-19T00:40:46;100304.72;;;15.10;91.52
82474;BME280;72350;53.232;6.556;2023-09-19T00:43:14;100306.31;;;14.93;89.24
82474;BME280;72350;53.232;6.556;2023-09-19T00:45:47;100312.25;;;14.96;89.72
82474;BME280;72350;53.232;6.556;2023-09-19T00:48:16;100313.91;;;15.04;88.97
82474;BME280;72350;53.232;6.556;2023-09-19T00:50:47;100315.66;;;14.98;88.79
82474;BME280;72350;53.232;6.556;2023-09-19T00:53:18;100324.16;;;15.03;92.77
82474;BME280;72350;53.232;6.556;2023-09-19T00:55:48;100327.19;;;14.95;88.35
82474;BME280;72350;53.232;6.556;2023-09-19T00:58:17;100328.53;;;14.86;88.53
82474;BME280;72350;53.232;6.556;2023-09-19T01:00:47;100330.28;;;14.80;87.83
82474;BME280;72350;53.232;6.556;2023-09-19T01:03:15;100340.31;;;14.81;87.95
82474;BME280;72350;53.232;6.556;2023-09-19T01:05:45;100336.06;;;14.72;87.90
82474;BME280;72350;53.232;6.556;2023-09-19T01:08:14;100341.03;;;14.63;88.75
82474;BME280;72350;53.232;6.556;2023-09-19T01:10:46;100343.53;;;14.72;89.46
82474;BME280;72350;53.232;6.556;2023-09-19T01:13:23;100357.84;;;14.69;88.59
82474;BME280;72350;53.232;6.556;2023-09-19T01:16:03;100351.72;;;14.53;87.35
82474;BME280;72350;53.232;6.556;2023-09-19T01:18:40;100348.53;;;14.43;87.76
82474;BME280;72350;53.232;6.556;2023-09-19T01:21:15;100351.06;;;14.45;89.72
82474;BME280;72350;53.232;6.556;2023-09-19T01:24:22;100346.41;;;14.45;88.48
82474;BME280;72350;53.232;6.556;2023-09-19T01:27:25;100350.72;;;14.28;87.85
82474;BME280;72350;53.232;6.556;2023-09-19T01:30:09;100343.44;;;14.40;88.42
82474;BME280;72350;53.232;6.556;2023-09-19T01:32:39;100348.34;;;14.38;88.70
82474;BME280;72350;53.232;6.556;2023-09-19T01:35:07;100351.75;;;14.40;87.94
82474;BME280;72350;53.232;6.556;2023-09-19T01:37:39;100354.78;;;14.25;86.51
82474;BME280;72350;53.232;6.556;2023-09-19T01:40:12;100364.94;;;14.96;96.45
82474;BME280;72350;53.232;6.556;2023-09-19T01:42:45;100368.63;;;14.83;91.11
82474;BME280;72350;53.232;6.556;2023-09-19T01:45:26;100361.91;;;14.66;88.25
82474;BME280;72350;53.232;6.556;2023-09-19T01:48:07;100367.25;;;14.61;87.31
82474;BME280;72350;53.232;6.556;2023-09-19T01:50:44;100362.59;;;14.48;84.79
82474;BME280;72350;53.232;6.556;2023-09-19T01:53:22;100363.03;;;14.45;86.69
82474;BME280;72350;53.232;6.556;2023-09-19T01:55:52;100361.13;;;14.39;85.20
82474;BME280;72350;53.232;6.556;2023-09-19T01:58:25;100366.06;;;14.30;84.75
82474;BME280;72350;53.232;6.556;2023-09-19T02:00:58;100365.38;;;14.41;86.91
82474;BME280;72350;53.232;6.556;2023-09-19T02:03:28;100379.91;;;14.30;84.41
82474;BME280;72350;53.232;6.556;2023-09-19T02:05:57;100362.41;;;14.36;86.32
82474;BME280;72350;53.232;6.556;2023-09-19T02:08:25;100363.06;;;14.32;84.35
82474;BME280;72350;53.232;6.556;2023-09-19T02:10:53;100360.97;;;14.27;84.76
82474;BME280;72350;53.232;6.556;2023-09-19T02:13:26;100354.97;;;14.24;85.19
82474;BME280;72350;53.232;6.556;2023-09-19T02:15:56;100369.50;;;14.12;85.11
82474;BME280;72350;53.232;6.556;2023-09-19T02:18:24;100362.06;;;14.06;84.75
82474;BME280;72350;53.232;6.556;2023-09-19T02:20:53;100359.91;;;14.15;88.77
82474;BME280;72350;53.232;6.556;2023-09-19T02:23:21;100359.94;;;14.02;84.37
82474;BME280;72350;53.232;6.556;2023-09-19T02:25:52;100366.56;;;13.94;85.46
82474;BME280;72350;53.232;6.556;2023-09-19T02:28:21;100371.25;;;13.93;86.13
82474;BME280;72350;53.232;6.556;2023-09-19T02:30:50;100370.19;;;13.94;86.83
82474;BME280;72350;53.232;6.556;2023-09-19T02:33:19;100372.94;;;13.88;86.31
82474;BME280;72350;53.232;6.556;2023-09-19T02:35:50;100367.63;;;13.86;88.44
82474;BME280;72350;53.232;6.556;2023-09-19T02:38:24;100369.31;;;13.87;87.17
82474;BME280;72350;53.232;6.556;2023-09-19T02:40:53;100374.22;;;13.85;86.17
82474;BME280;72350;53.232;6.556;2023-09-19T02:43:21;100360.41;;;13.79;86.73
82474;BME280;72350;53.232;6.556;2023-09-19T02:45:50;100368.09;;;13.70;86.95
82474;BME280;72350;53.232;6.556;2023-09-19T02:48:21;100368.28;;;13.68;87.04
82474;BME280;72350;53.232;6.556;2023-09-19T02:50:49;100364.88;;;13.66;87.26
82474;BME280;72350;53.232;6.556;2023-09-19T02:53:17;100372.31;;;13.66;86.61
82474;BME280;72350;53.232;6.556;2023-09-19T02:55:46;100371.25;;;13.67;86.75
82474;BME280;72350;53.232;6.556;2023-09-19T02:58:15;100375.75;;;13.54;86.24
82474;BME280;72350;53.232;6.556;2023-09-19T03:00:45;100371.69;;;13.50;86.30
82474;BME280;72350;53.232;6.556;2023-09-19T03:03:14;100373.19;;;13.53;86.75
82474;BME280;72350;53.232;6.556;2023-09-19T03:05:45;100376.34;;;13.57;87.15
82474;BME280;72350;53.232;6.556;2023-09-19T03:08:15;100381.72;;;13.65;87.90
82474;BME280;72350;53.232;6.556;2023-09-19T03:10:46;100382.09;;;13.62;87.08
82474;BME280;72350;53.232;6.556;2023-09-19T03:13:15;100382.34;;;13.73;88.78
82474;BME280;72350;53.232;6.556;2023-09-19T03:15:43;100373.19;;;13.66;86.02
82474;BME280;72350;53.232;6.556;2023-09-19T03:18:15;100385.72;;;13.69;86.04
82474;BME280;72350;53.232;6.556;2023-09-19T03:20:44;100378.91;;;13.71;85.80
82474;BME280;72350;53.232;6.556;2023-09-19T03:23:22;100372.75;;;13.76;86.01
82474;BME280;72350;53.232;6.556;2023-09-19T03:25:50;100388.09;;;13.65;84.98
82474;BME280;72350;53.232;6.556;2023-09-19T03:28:19;100386.59;;;13.69;84.93
82474;BME280;72350;53.232;6.556;2023-09-19T03:30:58;100400.84;;;13.66;83.88
82474;BME280;72350;53.232;6.556;2023-09-19T03:33:27;100398.94;;;13.60;84.69
82474;BME280;72350;53.232;6.556;2023-09-19T03:36:00;100396.38;;;13.59;84.64
82474;BME280;72350;53.232;6.556;2023-09-19T03:38:29;100391.91;;;13.51;84.65
82474;BME280;72350;53.232;6.556;2023-09-19T03:40:58;100400.41;;;13.56;84.38
82474;BME280;72350;53.232;6.556;2023-09-19T03:43:26;100396.38;;;13.52;84.93
82474;BME280;72350;53.232;6.556;2023-09-19T03:45:54;100400.84;;;13.53;84.58
82474;BME280;72350;53.232;6.556;2023-09-19T03:48:23;100399.16;;;13.59;85.53
82474;BME280;72350;53.232;6.556;2023-09-19T03:50:51;100393.59;;;13.59;85.28
82474;BME280;72350;53.232;6.556;2023-09-19T03:53:21;100389.13;;;13.64;85.09
82474;BME280;72350;53.232;6.556;2023-09-19T03:55:49;100391.25;;;13.49;85.20
82474;BME280;72350;53.232;6.556;2023-09-19T03:58:18;100397.44;;;13.51;86.29
82474;BME280;72350;53.232;6.556;2023-09-19T04:00:47;100406.78;;;13.57;85.34
82474;BME280;72350;53.232;6.556;2023-09-19T04:03:16;100408.94;;;13.41;85.79
82474;BME280;72350;53.232;6.556;2023-09-19T04:05:47;100397.22;;;13.46;86.94
82474;BME280;72350;53.232;6.556;2023-09-19T04:08:15;100398.94;;;13.47;88.11
82474;BME280;72350;53.232;6.556;2023-09-19T04:10:46;100394.47;;;13.39;87.32
82474;BME280;72350;53.232;6.556;2023-09-19T04:13:16;100408.50;;;13.44;87.99
82474;BME280;72350;53.232;6.556;2023-09-19T04:15:44;100407.22;;;13.40;87.34
82474;BME280;72350;53.232;6.556;2023-09-19T04:18:13;100404.03;;;13.50;88.54
82474;BME280;72350;53.232;6.556;2023-09-19T04:20:47;100403.59;;;13.40;88.48
82474;BME280;72350;53.232;6.556;2023-09-19T04:23:16;100411.06;;;13.39;89.04
82474;BME280;72350;53.232;6.556;2023-09-19T04:25:46;100419.13;;;13.41;89.62
82474;BME280;72350;53.232;6.556;2023-09-19T04:28:14;100403.41;;;13.54;89.57
82474;BME280;72350;53.232;6.556;2023-09-19T04:30:43;100405.31;;;13.54;88.48
82474;BME280;72350;53.232;6.556;2023-09-19T04:33:10;100417.88;;;13.50;88.58
82474;BME280;72350;53.232;6.556;2023-09-19T04:35:41;100417.66;;;13.51;88.99
82474;BME280;72350;53.232;6.556;2023-09-19T04:38:09;100406.81;;;13.50;89.13
82474;BME280;72350;53.232;6.556;2023-09-19T04:40:38;100413.84;;;13.52;90.98
82474;BME280;72350;53.232;6.556;2023-09-19T04:43:08;100424.50;;;13.62;89.77
82474;BME280;72350;53.232;6.556;2023-09-19T04:45:39;100445.34;;;13.65;89.04
82474;BME280;72350;53.232;6.556;2023-09-19T04:48:07;100445.13;;;13.66;89.37
82474;BME280;72350;53.232;6.556;2023-09-19T04:50:35;100425.75;;;13.66;89.83
82474;BME280;72350;53.232;6.556;2023-09-19T04:53:03;100423.00;;;13.60;89.32
82474;BME280;72350;53.232;6.556;2023-09-19T04:55:31;100422.78;;;13.61;90.18
82474;BME280;72350;53.232;6.556;2023-09-19T04:57:59;100430.22;;;13.61;89.58
82474;BME280;72350;53.232;6.556;2023-09-19T05:00:28;100431.09;;;13.54;89.25
82474;BME280;72350;53.232;6.556;2023-09-19T05:02:57;100435.13;;;13.52;90.86
82474;BME280;72350;53.232;6.556;2023-09-19T05:05:25;100440.84;;;13.50;90.34
82474;BME280;72350;53.232;6.556;2023-09-19T05:07:53;100438.94;;;13.64;90.81
82474;BME280;72350;53.232;6.556;2023-09-19T05:10:22;100433.63;;;13.56;90.42
82474;BME280;72350;53.232;6.556;2023-09-19T05:12:53;100442.34;;;13.66;92.11
82474;BME280;72350;53.232;6.556;2023-09-19T05:15:21;100438.94;;;13.64;90.24
82474;BME280;72350;53.232;6.556;2023-09-19T05:17:50;100436.38;;;13.56;90.46
82474;BME280;72350;53.232;6.556;2023-09-19T05:20:24;100435.75;;;13.61;91.19
82474;BME280;72350;53.232;6.556;2023-09-19T05:23:00;100436.63;;;13.68;93.14
82474;BME280;72350;53.232;6.556;2023-09-19T05:25:35;100442.16;;;13.68;91.35
82474;BME280;72350;53.232;6.556;2023-09-19T05:28:06;100433.66;;;13.76;91.23
82474;BME280;72350;53.232;6.556;2023-09-19T05:30:35;100440.03;;;13.83;92.80
82474;BME280;72350;53.232;6.556;2023-09-19T05:33:06;100439.81;;;13.85;90.65
82474;BME280;72350;53.232;6.556;2023-09-19T05:35:35;100448.75;;;13.73;90.70
82474;BME280;72350;53.232;6.556;2023-09-19T05:38:04;100456.00;;;13.74;92.96
82474;BME280;72350;53.232;6.556;2023-09-19T05:40:35;100452.38;;;13.67;90.59
82474;BME280;72350;53.232;6.556;2023-09-19T05:43:08;100449.59;;;13.74;91.10
82474;BME280;72350;53.232;6.556;2023-09-19T05:45:36;100448.75;;;13.67;90.97
82474;BME280;72350;53.232;6.556;2023-09-19T05:48:10;100444.09;;;13.81;91.60
82474;BME280;72350;53.232;6.556;2023-09-19T05:50:40;100448.13;;;13.91;93.42
82474;BME280;72350;53.232;6.556;2023-09-19T05:53:08;100450.66;;;13.93;93.12
82474;BME280;72350;53.232;6.556;2023-09-19T05:55:41;100442.59;;;13.85;90.82
82474;BME280;72350;53.232;6.556;2023-09-19T05:58:09;100434.72;;;13.75;90.05
82474;BME280;72350;53.232;6.556;2023-09-19T06:00:40;100428.97;;;13.76;90.50
82474;BME280;72350;53.232;6.556;2023-09-19T06:03:12;100444.94;;;13.81;90.54
82474;BME280;72350;53.232;6.556;2023-09-19T06:05:41;100443.03;;;13.88;91.46
82474;BME280;72350;53.232;6.556;2023-09-19T06:08:09;100454.72;;;13.84;90.90
82474;BME280;72350;53.232;6.556;2023-09-19T06:10:37;100466.44;;;13.79;91.56
82474;BME280;72350;53.232;6.556;2023-09-19T06:13:05;100468.16;;;13.87;91.40
82474;BME280;72350;53.232;6.556;2023-09-19T06:15:36;100480.06;;;13.94;92.00
82474;BME280;72350;53.232;6.556;2023-09-19T06:18:04;100476.25;;;13.88;91.77
82474;BME280;72350;53.232;6.556;2023-09-19T06:20:35;100480.94;;;13.94;91.38
82474;BME280;72350;53.232;6.556;2023-09-19T06:23:03;100480.94;;;13.94;91.16
82474;BME280;72350;53.232;6.556;2023-09-19T06:25:31;100479.88;;;14.09;91.52
82474;BME280;72350;53.232;6.556;2023-09-19T06:27:59;100484.97;;;14.05;91.05
82474;BME280;72350;53.232;6.556;2023-09-19T06:30:34;100483.50;;;14.09;90.32
82474;BME280;72350;53.232;6.556;2023-09-19T06:33:02;100489.00;;;14.16;90.35
82474;BME280;72350;53.232;6.556;2023-09-19T06:35:32;100486.91;;;14.11;89.73
82474;BME280;72350;53.232;6.556;2023-09-19T06:38:03;100486.03;;;14.11;88.95
82474;BME280;72350;53.232;6.556;2023-09-19T06:40:33;100482.19;;;14.18;89.38
82474;BME280;72350;53.232;6.556;2023-09-19T06:43:02;100476.66;;;14.18;88.78
82474;BME280;72350;53.232;6.556;2023-09-19T06:45:30;100472.63;;;14.14;88.46
82474;BME280;72350;53.232;6.556;2023-09-19T06:47:59;100478.38;;;14.19;88.20
82474;BME280;72350;53.232;6.556;2023-09-19T06:50:27;100478.16;;;14.21;88.42
82474;BME280;72350;53.232;6.556;2023-09-19T06:52:57;100469.41;;;14.24;88.00
82474;BME280;72350;53.232;6.556;2023-09-19T06:55:27;100474.94;;;14.37;88.81
82474;BME280;72350;53.232;6.556;2023-09-19T06:57:59;100469.19;;;14.39;87.49
82474;BME280;72350;53.232;6.556;2023-09-19T07:00:27;100471.50;;;14.42;87.53
82474;BME280;72350;53.232;6.556;2023-09-19T07:02:58;100473.66;;;14.53;87.12
82474;BME280;72350;53.232;6.556;2023-09-19T07:05:28;100470.03;;;14.66;86.57
82474;BME280;72350;53.232;6.556;2023-09-19T07:07:56;100478.94;;;14.75;87.73
82474;BME280;72350;53.232;6.556;2023-09-19T07:10:27;100479.13;;;14.80;85.43
82474;BME280;72350;53.232;6.556;2023-09-19T07:12:56;100483.78;;;14.93;85.99
82474;BME280;72350;53.232;6.556;2023-09-19T07:15:24;100479.88;;;15.07;85.64
82474;BME280;72350;53.232;6.556;2023-09-19T07:17:53;100473.88;;;15.17;85.20
82474;BME280;72350;53.232;6.556;2023-09-19T07:20:24;100486.50;;;15.13;84.24
82474;BME280;72350;53.232;6.556;2023-09-19T07:22:53;100493.09;;;15.18;84.42
82474;BME280;72350;53.232;6.556;2023-09-19T07:25:21;100499.03;;;15.22;84.52
82474;BME280;72350;53.232;6.556;2023-09-19T07:27:54;100494.69;;;15.33;84.03
82474;BME280;72350;53.232;6.556;2023-09-19T07:30:22;100498.19;;;15.21;84.48
82474;BME280;72350;53.232;6.556;2023-09-19T07:32:53;100496.25;;;15.22;84.79
82474;BME280;72350;53.232;6.556;2023-09-19T07:35:21;100494.75;;;15.26;84.65
82474;BME280;72350;53.232;6.556;2023-09-19T07:37:49;100498.13;;;15.35;85.57
82474;BME280;72350;53.232;6.556;2023-09-19T07:40:19;100485.31;;;15.34;84.82
82474;BME280;72350;53.232;6.556;2023-09-19T07:42:48;100495.53;;;15.40;84.44
82474;BME280;72350;53.232;6.556;2023-09-19T07:45:18;100491.56;;;15.61;84.67
82474;BME280;72350;53.232;6.556;2023-09-19T07:47:47;100494.09;;;15.69;82.56
82474;BME280;72350;53.232;6.556;2023-09-19T07:50:16;100488.69;;;15.81;83.03
82474;BME280;72350;53.232;6.556;2023-09-19T07:52:45;100496.56;;;15.84;82.06
82474;BME280;72350;53.232;6.556;2023-09-19T07:55:13;100491.66;;;15.86;81.53
82474;BME280;72350;53.232;6.556;2023-09-19T07:57:44;100492.03;;;15.89;81.66
82474;BME280;72350;53.232;6.556;2023-09-19T08:00:12;100494.34;;;15.92;82.14
82474;BME280;72350;53.232;6.556;2023-09-19T08:02:42;100490.75;;;15.92;83.10
82474;BME280;72350;53.232;6.556;2023-09-19T08:05:12;100490.34;;;15.88;81.14
82474;BME280;72350;53.232;6.556;2023-09-19T08:07:44;100492.19;;;16.01;81.47
82474;BME280;72350;53.232;6.556;2023-09-19T08:10:14;100496.59;;;16.09;82.39
82474;BME280;72350;53.232;6.556;2023-09-19T08:12:43;100500.13;;;16.23;80.32
82474;BME280;72350;53.232;6.556;2023-09-19T08:15:14;100515.53;;;16.44;79.32
82474;BME280;72350;53.232;6.556;2023-09-19T08:17:43;100504.75;;;16.54;79.13
82474;BME280;72350;53.232;6.556;2023-09-19T08:20:12;100497.97;;;16.68;78.48
82474;BME280;72350;53.232;6.556;2023-09-19T08:22:43;100500.66;;;16.81;77.88
82474;BME280;72350;53.232;6.556;2023-09-19T08:25:14;100494.47;;;16.73;77.06
82474;BME280;72350;53.232;6.556;2023-09-19T08:27:44;100495.41;;;16.92;77.37
82474;BME280;72350;53.232;6.556;2023-09-19T08:30:14;100506.75;;;17.09;78.90
82474;BME280;72350;53.232;6.556;2023-09-19T08:32:44;100497.38;;;17.03;76.18
82474;BME280;72350;53.232;6.556;2023-09-19T08:35:13;100504.66;;;17.04;76.69
82474;BME280;72350;53.232;6.556;2023-09-19T08:37:42;100506.66;;;17.15;76.43
82474;BME280;72350;53.232;6.556;2023-09-19T08:40:12;100498.28;;;17.34;75.81
82474;BME280;72350;53.232;6.556;2023-09-19T08:42:50;100489.31;;;17.32;75.53
82474;BME280;72350;53.232;6.556;2023-09-19T08:45:18;100492.53;;;17.47;76.36
82474;BME280;72350;53.232;6.556;2023-09-19T08:47:58;100491.75;;;17.28;75.48
82474;BME280;72350;53.232;6.556;2023-09-19T08:50:30;100487.72;;;17.06;76.27
82474;BME280;72350;53.232;6.556;2023-09-19T08:53:01;100490.28;;;17.07;76.48
82474;BME280;72350;53.232;6.556;2023-09-19T08:55:29;100482.47;;;17.16;76.13
82474;BME280;72350;53.232;6.556;2023-09-19T08:58:00;100488.81;;;17.23;76.74
82474;BME280;72350;53.232;6.556;2023-09-19T09:00:30;100511.91;;;17.23;75.68
82474;BME280;72350;53.232;6.556;2023-09-19T09:03:01;100496.44;;;17.09;76.42
82474;BME280;72350;53.232;6.556;2023-09-19T09:05:31;100506.84;;;17.02;75.69
82474;BME280;72350;53.232;6.556;2023-09-19T09:08:00;100508.44;;;17.28;76.48
82474;BME280;72350;53.232;6.556;2023-09-19T09:10:30;100512.19;;;17.52;75.22
82474;BME280;72350;53.232;6.556;2023-09-19T09:12:58;100503.91;;;17.45;75.63
82474;BME280;72350;53.232;6.556;2023-09-19T09:15:27;100510.66;;;17.38;76.36
82474;BME280;72350;53.232;6.556;2023-09-19T09:17:57;100507.31;;;17.47;75.24
82474;BME280;72350;53.232;6.556;2023-09-19T09:20:27;100499.94;;;17.23;75.73
82474;BME280;72350;53.232;6.556;2023-09-19T09:22:56;100501.56;;;17.31;76.84
82474;BME280;72350;53.232;6.556;2023-09-19T09:25:48;100505.69;;;17.40;76.29
82474;BME280;72350;53.232;6.556;2023-09-19T09:28:19;100501.38;;;17.44;76.71
82474;BME280;72350;53.232;6.556;2023-09-19T09:30:47;100502.28;;;17.38;75.71
82474;BME280;72350;53.232;6.556;2023-09-19T09:33:17;100501.84;;;17.41;76.48
82474;BME280;72350;53.232;6.556;2023-09-19T09:35:52;100492.63;;;17.40;76.42
82474;BME280;72350;53.232;6.556;2023-09-19T09:38:20;100504.50;;;17.36;76.88
82474;BME280;72350;53.232;6.556;2023-09-19T09:40:53;100495.84;;;17.25;76.04
82474;BME280;72350;53.232;6.556;2023-09-19T09:43:28;100492.63;;;17.40;78.19
82474;BME280;72350;53.232;6.556;2023-09-19T09:46:11;100480.50;;;17.35;75.73
82474;BME280;72350;53.232;6.556;2023-09-19T09:48:58;100496.34;;;17.34;75.36
82474;BME280;72350;53.232;6.556;2023-09-19T09:51:45;100477.00;;;17.39;75.52
82474;BME280;72350;53.232;6.556;2023-09-19T09:54:25;100489.28;;;17.50;76.06
82474;BME280;72350;53.232;6.556;2023-09-19T09:57:01;100495.50;;;17.34;75.92
82474;BME280;72350;53.232;6.556;2023-09-19T09:59:50;100467.78;;;17.09;76.01
82474;BME280;72350;53.232;6.556;2023-09-19T10:02:21;100493.66;;;17.28;76.18
82474;BME280;72350;53.232;6.556;2023-09-19T10:04:56;100491.91;;;17.45;75.78
82474;BME280;72350;53.232;6.556;2023-09-19T10:07:38;100486.91;;;17.54;75.82
82474;BME280;72350;53.232;6.556;2023-09-19T10:10:10;100480.53;;;17.77;75.18
82474;BME280;72350;53.232;6.556;2023-09-19T10:12:45;100461.19;;;17.82;73.75
82474;BME280;72350;53.232;6.556;2023-09-19T10:15:15;100463.28;;;17.86;73.44
82474;BME280;72350;53.232;6.556;2023-09-19T10:17:48;100468.00;;;17.86;72.73
82474;BME280;72350;53.232;6.556;2023-09-19T10:20:17;100469.47;;;18.00;73.15
82474;BME280;72350;53.232;6.556;2023-09-19T10:23:04;100479.28;;;18.03;71.64
82474;BME280;72350;53.232;6.556;2023-09-19T10:25:38;100466.94;;;17.99;70.73
82474;BME280;72350;53.232;6.556;2023-09-19T10:28:08;100480.38;;;18.02;73.08
82474;BME280;72350;53.232;6.556;2023-09-19T10:30:41;100467.53;;;17.89;69.97
82474;BME280;72350;53.232;6.556;2023-09-19T10:33:11;100460.63;;;17.92;70.41
82474;BME280;72350;53.232;6.556;2023-09-19T10:35:42;100441.59;;;17.88;71.12
82474;BME280;72350;53.232;6.556;2023-09-19T10:38:12;100455.22;;;17.78;72.18
82474;BME280;72350;53.232;6.556;2023-09-19T10:40:48;100448.19;;;17.76;71.99
82474;BME280;72350;53.232;6.556;2023-09-19T10:43:17;100454.34;;;17.96;73.18
82474;BME280;72350;53.232;6.556;2023-09-19T10:45:46;100453.25;;;18.09;72.48
82474;BME280;72350;53.232;6.556;2023-09-19T10:48:16;100447.69;;;18.09;71.78
82474;BME280;72350;53.232;6.556;2023-09-19T10:50:50;100451.19;;;17.93;71.90
82474;BME280;72350;53.232;6.556;2023-09-19T10:53:20;100449.72;;;17.90;71.25
82474;BME280;72350;53.232;6.556;2023-09-19T10:55:51;100455.75;;;17.87;72.17
82474;BME280;72350;53.232;6.556;2023-09-19T10:58:26;100462.59;;;17.73;72.76
82474;BME280;72350;53.232;6.556;2023-09-19T11:00:56;100450.56;;;17.60;72.06
82474;BME280;72350;53.232;6.556;2023-09-19T11:03:29;100442.28;;;17.72;71.91
82474;BME280;72350;53.232;6.556;2023-09-19T11:06:03;100445.38;;;17.64;70.57
82474;BME280;72350;53.232;6.556;2023-09-19T11:08:54;100430.13;;;17.66;70.82
82474;BME280;72350;53.232;6.556;2023-09-19T11:11:41;100426.97;;;17.63;72.11
82474;BME280;72350;53.232;6.556;2023-09-19T11:14:37;100425.50;;;17.49;72.07
82474;BME280;72350;53.232;6.556;2023-09-19T11:17:30;100439.28;;;17.55;72.65
82474;BME280;72350;53.232;6.556;2023-09-19T11:20:21;100437.88;;;17.64;72.42
82474;BME280;72350;53.232;6.556;2023-09-19T11:23:21;100424.94;;;17.70;73.69
82474;BME280;72350;53.232;6.556;2023-09-19T11:25:58;100422.84;;;17.65;72.14
82474;BME280;72350;53.232;6.556;2023-09-19T11:28:33;100415.00;;;17.62;72.65
82474;BME280;72350;53.232;6.556;2023-09-19T11:34:38;100424.69;;;17.72;72.63
82474;BME280;72350;53.232;6.556;2023-09-19T11:40:09;100409.72;;;17.84;72.72
82474;BME280;72350;53.232;6.556;2023-09-19T11:42:44;100406.25;;;18.01;71.82
82474;BME280;72350;53.232;6.556;2023-09-19T11:48:29;100382.84;;;17.90;71.77
82474;BME280;72350;53.232;6.556;2023-09-19T11:50:59;100385.03;;;17.88;72.00
82474;BME280;72350;53.232;6.556;2023-09-19T11:53:33;100388.44;;;17.90;72.33
82474;BME280;72350;53.232;6.556;2023-09-19T11:56:06;100397.38;;;17.92;71.61
82474;BME280;72350;53.232;6.556;2023-09-19T11:58:41;100388.38;;;17.78;71.65
82474;BME280;72350;53.232;6.556;2023-09-19T12:01:12;100390.53;;;17.76;72.08
82474;BME280;72350;53.232;6.556;2023-09-19T12:03:52;100386.91;;;17.76;73.16
82474;BME280;72350;53.232;6.556;2023-09-19T12:06:21;100386.78;;;17.71;72.34
82474;BME280;72350;53.232;6.556;2023-09-19T12:08:50;100389.91;;;17.62;73.70
82474;BME280;72350;53.232;6.556;2023-09-19T12:11:21;100391.81;;;17.50;74.35
82474;BME280;72350;53.232;6.556;2023-09-19T12:13:52;100381.91;;;17.54;75.05
82474;BME280;72350;53.232;6.556;2023-09-19T12:16:20;100381.66;;;17.44;75.07
82474;BME280;72350;53.232;6.556;2023-09-19T12:18:51;100387.69;;;17.41;74.00
82474;BME280;72350;53.232;6.556;2023-09-19T12:21:28;100381.03;;;17.42;74.87
82474;BME280;72350;53.232;6.556;2023-09-19T12:24:06;100373.78;;;17.41;74.14
82474;BME280;72350;53.232;6.556;2023-09-19T12:26:39;100371.56;;;17.43;75.70
82474;BME280;72350;53.232;6.556;2023-09-19T12:29:17;100371.13;;;17.46;77.28
82474;BME280;72350;53.232;6.556;2023-09-19T12:31:52;100380.94;;;17.49;76.61
82474;BME280;72350;53.232;6.556;2023-09-19T12:34:27;100379.22;;;17.36;76.88
82474;BME280;72350;53.232;6.556;2023-09-19T12:37:05;100388.88;;;17.33;79.45
82474;BME280;72350;53.232;6.556;2023-09-19T12:39:39;100385.09;;;17.28;80.65
82474;BME280;72350;53.232;6.556;2023-09-19T12:42:09;100377.94;;;17.20;79.87
82474;BME280;72350;53.232;6.556;2023-09-19T12:44:44;100364.75;;;17.27;79.83
82474;BME280;72350;53.232;6.556;2023-09-19T12:47:15;100371.84;;;17.41;79.31
82474;BME280;72350;53.232;6.556;2023-09-19T12:50:11;100350.06;;;17.50;77.59
82474;BME280;72350;53.232;6.556;2023-09-19T12:52:45;100354.69;;;17.56;76.80
82474;BME280;72350;53.232;6.556;2023-09-19T12:55:26;100353.09;;;17.60;77.13
82474;BME280;72350;53.232;6.556;2023-09-19T12:57:59;100357.47;;;17.68;78.68
82474;BME280;72350;53.232;6.556;2023-09-19T13:00:34;100343.19;;;17.76;78.68
82474;BME280;72350;53.232;6.556;2023-09-19T13:03:12;100350.78;;;17.69;77.71
82474;BME280;72350;53.232;6.556;2023-09-19T13:05:53;100342.56;;;17.62;77.11
82474;BME280;72350;53.232;6.556;2023-09-19T13:08:26;100343.63;;;17.50;76.38
82474;BME280;72350;53.232;6.556;2023-09-19T13:11:03;100337.72;;;17.46;75.96
82474;BME280;72350;53.232;6.556;2023-09-19T13:13:33;100338.50;;;17.35;76.13
82474;BME280;72350;53.232;6.556;2023-09-19T13:16:04;100342.91;;;17.42;76.65
82474;BME280;72350;53.232;6.556;2023-09-19T13:18:42;100351.25;;;17.42;76.83
82474;BME280;72350;53.232;6.556;2023-09-19T13:21:12;100356.94;;;17.47;76.93
82474;BME280;72350;53.232;6.556;2023-09-19T13:23:52;100350.63;;;17.40;77.35